Terminal Aerodrome Forecast
Issued by NWS Cleveland, OH

Home | Current Version | Previous Version | Graphics & Text | Print | Product List | Glossary On
Versions: 1 2 3 4 5 6 7 8 9 10 11 12
168
FTUS41 KCLE 252325
TAFMFD
TAF
KMFD 252325Z 2600/2624 12008KT P6SM SCT070
     FM261500 16012G22KT P6SM SCT040=

USA.gov is the U.S. government's official web portal to all federal, state and local government web resources and services.